Thomas Shaw

Recruteur en chef - Bolton Wanderers
4 Déc 2028
Lundi
Processus

Personnalité

Adaptabilité (4) Ambition (19) Controverse (8) Loyauté (8) Pression (20) Professionnalisme (7) Sportivité (8) Tempérament (20)

Profil

Style d'entraînement Démocratique
Diplôme National B
Détermination 4
Gestion des joueurs 9
Motivation 5
Discipline 4
Satisfaction professionnelle
100%
Fatigue
0%
Rôle Recruteur en chef
Salaire 84.5K p/s
Contrat 14.03.2030

Performance

Comportement Bon
Efficacité de l'entraînement
45%
Développement des joueurs
45%
Prévention des blessures
20%
Mise en place tactique
45%

Événements récents

A participé à une réunion de recrutement maintenant
A participé à une réunion de recrutement maintenant
A recommandé une cible de transfert maintenant
A recommandé une cible de transfert maintenant
A recommandé une cible de transfert maintenant
A recommandé une cible de transfert maintenant
A évalué un joueur maintenant
A évalué un joueur maintenant

Suivi en cours

208
Joueur Club Statut Capacité Confiance Observé Dernière observation Dernier vote
Miguel Figueiredo Benfica Actif 128 / 129 40% 5 02.12.2028 -
Louis Page Leicester City Actif 137 / 137 40% 1 02.12.2028 -
Filip Reshane Stabaek Actif 109 / 106 40% 2 30.11.2028 -
Aidan Borland Espanyol Actif 111 / 116 40% 1 30.11.2028 -
José Neto Benfica Actif 124 / 131 40% 1 30.11.2028 -
Josh Torquato FC Dallas Actif 87 / 92 40% 6 29.11.2028 -
Celías Ingenthron Platense Actif 117 / 117 40% 4 29.11.2028 -
Honest Ahanor Atalanta Actif 138 / 153 40% 8 28.11.2028 -
Máximo Munarriz San Telmo Actif 101 / 116 40% 3 28.11.2028 -
Mateo Faure BATE Actif 95 / 101 40% 5 28.11.2028 -
Gideon Manaseh Ikorodu City Actif 95 / 92 40% 8 26.11.2028 -
Tyson Pearce St. Louis CITY SC Actif 95 / 113 40% 2 26.11.2028 -
Diego León Rotherham United Actif 131 / 129 40% 2 26.11.2028 -
Ivan Borges Defensores Actif 81 / 97 40% 5 25.11.2028 -
Bernardo Lima Porto Actif 114 / 126 40% 2 24.11.2028 -
Jonny Shore New York City Actif 102 / 104 40% 4 24.11.2028 -
Estanislao López Colón Actif 92 / 86 40% 1 22.11.2028 -
Máximo Magnoli Ferro Carril Oeste Actif 102 / 91 40% 1 22.11.2028 -
Abubakar Adams Aduana Stars Actif 94 / 93 40% 1 22.11.2028 -
Rafael Mota Sporting CP Actif 118 / 131 40% 2 18.11.2028 -
Aytor Herrera Mineros de Guayana Actif 83 / 103 40% 2 17.11.2028 -
Malte Hallin GIF Sundsvall Actif 87 / 84 40% 3 17.11.2028 -
Daniel Banjaqui Benfica Actif 126 / 136 40% 3 16.11.2028 -
Veljko Milosavljević Bournemouth Actif 146 / 148 40% 2 16.11.2028 -
Noah Markmann Esbjerg Actif 122 / 120 40% 1 16.11.2028 -
Ntando Tshwana Jomo Cosmos Actif 86 / 102 40% 1 15.11.2028 -
Ronan Kpakio AC Milan Actif 126 / 130 40% 1 15.11.2028 -
Jan Cedilnik Chikhura Actif 86 / 99 40% 4 14.11.2028 -
Snyder Brunell Seattle Sounders Actif 96 / 93 40% 5 14.11.2028 -
Giovanni Leoni Lincoln City Actif 143 / 152 40% 8 14.11.2028 -
Tiago Gordillo San Miguel Actif 81 / 102 40% 5 12.11.2028 -
Vitaly Bondarev Ural Actif 109 / 121 40% 1 12.11.2028 -
Óscar Hinojosa Metropolitanos Actif 91 / 98 40% 6 11.11.2028 -
Harbor Miller LA Galaxy Actif 107 / 97 40% 2 11.11.2028 -
Alejandro Tapia Central Norte Actif 82 / 91 40% 4 11.11.2028 -
Riquelme Thompson-Jones Accrington Stanley Actif 111 / 124 40% 2 07.11.2028 -
Jan Bürger Northampton Town Actif 125 / 122 40% 4 06.11.2028 -
Ian James Sporting Kansas City Actif 94 / 83 40% 1 06.11.2028 -
Aiden Hezarkhani Real Salt Lake Actif 101 / 113 40% 1 04.11.2028 -
Diego Cheuquepal Racing Actif 105 / 96 40% 2 02.11.2028 -
Colin Guske Orlando City Actif 101 / 106 40% 5 01.11.2028 -
Chris Rigg West Ham United Actif 142 / 153 40% 1 01.11.2028 -
Harrison Armstrong Ipswich Town Actif 138 / 152 40% 3 30.10.2028 -
Andrija Bulatović Chamois Niortais Actif 131 / 141 40% 2 28.10.2028 -
Onyeuche Ujunwa Ikorodu City Actif 91 / 98 40% 5 27.10.2028 -
Santiago Espíndola River Plate Actif 112 / 121 40% 1 22.10.2028 -
Jude Terry Los Angeles Football Club Actif 90 / 113 40% 1 21.10.2028 -
Somtochuwku Ezenabo Kwara United Actif 91 / 107 40% 3 18.10.2028 -
Eric Klein Real Salt Lake Actif 100 / 108 40% 2 18.10.2028 -
Mauro Matorras Central Norte Actif 91 / 88 40% 1 18.10.2028 -
Drew Baiera New York City Actif 101 / 99 40% 3 15.10.2028 -
Alexandr Derzhinskiy Slavia Mozyr Actif 87 / 93 40% 1 14.10.2028 -
Tyler Fletcher Rotherham United Actif 114 / 131 40% 4 13.10.2028 -
Matías Satas Grimsby Town Actif 105 / 109 40% 1 09.10.2028 -
Lautaro Dufur Juventud Actif 104 / 103 40% 1 09.10.2028 -
Matthew Dos Santos New York Red Bulls Actif 94 / 90 40% 1 07.10.2028 -
Anderson Acevedo Bogota Actif 84 / 82 40% 1 05.10.2028 -
Tobías Ramírez River Plate Actif 127 / 134 40% 1 04.10.2028 -
Kerim Alajbegović Modena Actif 139 / 138 40% 1 16.08.2028 -
Emmanuel Ndubueze Shooting Stars Actif 88 / 92 40% 1 16.08.2028 -
Nadir Sánchez Central Córdoba SdE Actif 93 / 96 40% 1 16.08.2028 -
Brayan Aragón Barnsley Rapport prêt 102 / 108 83% 1 14.08.2028 -
Tommy Dobson-Ventura Southampton Rapport prêt 108 / 117 83% 1 07.08.2028 -
Malcolm Ebiowei Gillingham Perdu 113 / 102 79% 1 26.06.2028 -
Ryan Kavuma-McQueen Accrington Stanley Actif 121 / 133 40% 1 06.06.2028 -
Fletcher Boyd Accrington Stanley Actif 102 / 103 40% 1 06.06.2028 -
Ryan Oné Sheffield United Actif 118 / 129 40% 1 06.06.2028 -
Martim Cunha Porto Actif 104 / 110 40% 4 02.06.2028 -
Federico Matarán Giana Erminio Perdu 107 / 116 40% 2 02.06.2028 -
Amine Boukamir Charleroi Actif 106 / 115 40% 2 13.02.2028 -
Matvey Bardachev Zenit Actif 112 / 103 40% 1 11.02.2028 -
Trey Nyoni Rotherham United Actif 133 / 136 40% 6 10.02.2028 -
Lucas Camejo River Plate Actif 95 / 88 40% 3 08.02.2028 -
Nicolas Sport Recife Actif 105 / 126 40% 1 08.02.2028 -
Mao Hosoya Santos Actif 134 / 135 67% 1 01.01.2028 Approuver
Matěj Ryneš AS Nancy Actif 122 / 123 67% 1 01.01.2028 Approuver
Nana Nuhu WAFA Actif 95 / 107 40% 1 31.12.2027 -
Mateus Mané Burnley Actif 133 / 142 40% 1 31.12.2027 -
Lucas Bergvall Tottenham Actif 152 / 166 40% 4 30.11.2027 -
Ignacio Fernández Boston River Actif 84 / 86 40% 3 30.11.2027 -
Caleb Yirenkyi Coventry City Actif 147 / 150 40% 5 29.11.2027 -
Josh Acheampong Everton Actif 136 / 140 40% 4 29.11.2027 -
Joel Ezra Enyimba Actif 91 / 96 40% 5 28.11.2027 -
Jon Esenga IF Elfsborg Actif 92 / 99 40% 1 27.11.2027 -
Agustín Obregón River Plate Actif 109 / 124 40% 2 24.11.2027 -
Hosea Michael Remo Stars Actif 93 / 99 40% 3 23.11.2027 -
Oscar Steinke Brånby Hammarby Actif 115 / 106 40% 1 23.11.2027 -
Olivier Mambwa Young Boys Actif 111 / 123 40% 1 23.11.2027 -
Francisco Machis Llaneros Actif 82 / 84 40% 3 19.11.2027 -
Matias Siltanen Malmo FF Actif 129 / 129 40% 3 18.11.2027 -
Tobias Moi Lillestrom Actif 110 / 99 40% 1 18.11.2027 -
Juan Camilo Córdoba Deportivo Pereira Actif 87 / 82 40% 2 14.11.2027 -
Diego Vargas Universidad de Concepcion Actif 98 / 98 40% 1 14.11.2027 -
Victor Hernandez Santa Fe Actif 127 / 108 40% 5 13.11.2027 -
Yury Oyarzo Racing Actif 92 / 91 40% 2 12.11.2027 -
Adrian Skogmar Malmo FF Actif 104 / 130 40% 2 11.11.2027 -
Hugo Rojas Instituto Actif 94 / 99 40% 1 10.11.2027 -
Esquerdinha Notts County Actif 120 / 135 40% 2 05.11.2027 -
Ayden Heaven Portsmouth Actif 154 / 144 40% 3 03.11.2027 -
Mohamed Moussa Koïta Mathare United Actif 92 / 113 40% 1 03.11.2027 -
Adrian Gill Atlanta United FC Actif 91 / 92 40% 3 31.10.2027 -
Nazareno Roselli Defensa y Justicia Actif 112 / 134 40% 1 27.10.2027 -
Josh Nichols Oldham Athletic Actif 127 / 117 40% 1 26.10.2027 -
Kelechi Onwe Ikorodu City Actif 84 / 101 40% 1 26.10.2027 -
Matthew Litherland Harrogate Town Actif 118 / 120 40% 1 25.10.2027 -
Matías Canedo Rampla Juniors Actif 94 / 75 40% 1 14.10.2027 -
Onuorah Onyedika Kun Khalifat Actif 89 / 92 40% 1 07.10.2027 -
Lenny Agbaire Rotherham United Actif 105 / 109 69% 1 02.08.2027 Approuver
Samuele di Benedetto Twente Perdu 122 / 129 40% 3 31.05.2027 -
Pedro Vian Seewald Dolomiti Bellunesi Actif 87 / 104 40% 2 31.05.2027 -
Mpho Khethang FC Diarra Actif 75 / 97 40% 3 30.05.2027 -
Chari Giwa US Bougouni Actif 76 / 74 40% 5 30.05.2027 -
Bade Aluko Leicester City Actif 118 / 113 40% 2 30.05.2027 -
Issa Yusuf Shooting Stars Actif 89 / 98 40% 1 26.05.2027 -
Andrea Bertoncini Triestina Actif 89 / 101 40% 2 24.05.2027 -
Jenson Jones Walsall Actif 84 / 102 40% 1 23.05.2027 -
Sascha Britschgi AC Milan Actif 113 / 126 40% 2 20.05.2027 -
Gonçalo Oliveira Benfica Actif 105 / 116 40% 3 17.05.2027 -
Ahmed Akinyele Remo Stars Actif 85 / 106 40% 1 16.05.2027 -
Riyad Idrissi Cagliari Actif 126 / 129 40% 1 15.05.2027 -
Charlie Gray Fleetwood Town Actif 84 / 93 40% 5 14.05.2027 -
Daniel Dennis Ikorodu City Actif 98 / 86 40% 1 11.05.2027 -
Bence Dárdai VfL Wolfsburg Actif 122 / 129 40% 1 08.05.2027 -
Kamaldeen Atiemo Wa All Stars Actif 90 / 107 40% 1 06.05.2027 -
Zane Albarus Shrewsbury Town Actif 102 / 103 40% 2 05.05.2027 -
Riley Owen Stevenage Actif 104 / 104 40% 5 02.05.2027 -
Kazunari Kita Real Sociedad Actif 92 / 113 40% 1 27.04.2027 -
Rivaldo Mkhize Black Aces Actif 70 / 74 40% 1 26.04.2027 -
Tiago Freitas Benfica Actif 117 / 123 40% 2 24.04.2027 -
Afriyie Sulemana WAFA Actif 84 / 90 40% 1 21.04.2027 -
Godwin Oham Warri Wolves Actif 79 / 99 40% 1 16.04.2027 -
Edwin Asamoah Berekum Chelsea Actif 81 / 78 40% 1 15.04.2027 -
Eliás Montiel Borussia Dortmund Actif 126 / 145 40% 1 14.04.2027 -
Dean Jali Platinum Stars Actif 80 / 91 40% 1 08.04.2027 -
Dennis Cirkin Queens Park Rangers Actif 124 / 133 40% 1 25.01.2027 -
Jack Currie Oxford United Actif 113 / 112 40% 1 25.01.2027 -
Romano Floriani Mussolini Blackpool Actif 117 / 115 40% 1 25.01.2027 -
Habib Diarra Sunderland Actif 145 / 138 40% 2 19.01.2027 -
Adam Randell Bristol City Actif 133 / 122 40% 1 19.01.2027 -
Will Dennis Milton Keynes Dons Actif 97 / 107 40% 3 02.01.2027 -
Tariq Lamptey Queens Park Rangers Actif 143 / 143 40% 1 02.01.2027 -
Ronnie Edwards Queens Park Rangers Actif 132 / 133 40% 1 02.01.2027 -
Sampson Dweh Mallorca Actif 133 / 134 66% 1 01.01.2027 Approuver
Isaiah Jones Luton Town Actif 116 / 119 40% 1 30.12.2026 -
Anthony Patterson Wrexham Actif 138 / 117 40% 4 28.12.2026 -
Myles Roberts Cambridge United Actif 110 / 99 40% 2 28.12.2026 -
Eddie Nketiah Crystal Palace Actif 133 / 142 40% 1 27.12.2026 -
John Amah Plateau United Actif 89 / 101 40% 4 25.12.2026 -
Jordan Amissah Burton Albion Actif 93 / 107 40% 2 25.12.2026 -
Alexandr Koryakin Krasnodar Actif 123 / 102 40% 1 25.12.2026 -
Radek Vítek Middlesbrough Actif 141 / 136 40% 5 23.12.2026 -
Luka Gavran Toronto FC Actif 111 / 97 40% 1 23.12.2026 -
Roman Celentano FC Cincinnati Actif 108 / 124 40% 4 22.12.2026 -
Itumeleng Grobler Free State Stars Actif 86 / 114 40% 5 22.12.2026 -
Lukas Jensen Millwall Actif 127 / 126 40% 2 22.12.2026 -
Elia Caprile Cagliari Actif 144 / 145 40% 1 21.12.2026 -
Gregory Sekyere Aduana Stars Actif 83 / 80 40% 1 19.12.2026 -
Simphiwe Selepe Orlando Pirates Actif 114 / 112 40% 2 18.12.2026 -
Michael Atata Ikorodu City Actif 101 / 104 40% 2 18.12.2026 -
Daniel Kyerewaa Reading Actif 122 / 110 40% 1 18.12.2026 -
Joe Gelhardt Hull City Actif 128 / 142 40% 1 18.12.2026 -
Thalente Mbatha Orlando Pirates Actif 105 / 114 40% 1 18.12.2026 -
Bongani Zungu Ajax Cape Town Actif 140 / 140 40% 4 16.12.2026 -
Brian Bwire Polokwane City Actif 100 / 84 40% 3 12.12.2026 -
John Pulskamp Sporting Kansas City Actif 119 / 120 40% 1 12.12.2026 -
Marvin Keller Chelsea Actif 135 / 131 40% 2 10.12.2026 -
Felix Kyei Medeama Actif 83 / 101 40% 2 09.12.2026 -
Elliot Anderson Manchester City Actif 161 / 151 40% 1 09.12.2026 -
Ani Ozoemena Rivers United Actif 107 / 99 40% 2 07.12.2026 -
Telasco Segovia Inter Miami CF Actif 121 / 146 40% 2 06.12.2026 -
Josh Keeley Luton Town Actif 130 / 121 40% 1 06.12.2026 -
Vincent Edafe Warri Wolves Actif 98 / 100 40% 1 06.12.2026 -
Matt O'Riley Brighton Actif 138 / 134 40% 1 03.12.2026 Plus d'infos
Sławomir Abramowicz Jagiellonia Actif 115 / 126 40% 1 30.11.2026 -
Olalekan Adeleke Remo Stars Actif 94 / 86 40% 1 29.11.2026 -
Reece Braithwaite Bloemfontein Celtic Actif 101 / 121 40% 1 27.11.2026 -
Mbekezeli Mbokazi Chicago Fire Actif 134 / 134 40% 1 27.11.2026 -
Fran Vieites Walsall Actif 119 / 106 40% 1 25.11.2026 -
Lucas Lund Viborg Actif 119 / 106 40% 1 25.11.2026 -
Ameh Godwin Nasarawa United Actif 89 / 102 40% 1 24.11.2026 -
Murphy Cooper Plymouth Argyle Actif 119 / 120 40% 3 23.11.2026 -
Philippe Ndinga Philadelphia Union Actif 110 / 126 40% 1 23.11.2026 -
Talles Magno New York City Actif 117 / 142 40% 1 21.11.2026 -
Brooke Norton-Cuffy Hull City Actif 144 / 137 40% 1 21.11.2026 -
Marcus Bundgaard SonderjyskE Actif 101 / 106 40% 1 19.11.2026 -
Keisuke Osako Sanfrecce Hiroshima Actif 150 / 128 40% 1 19.11.2026 -
Pedro Porro Tottenham Actif 137 / 141 40% 1 17.11.2026 -
Patrick Schulte Columbus Crew Actif 121 / 115 40% 1 14.11.2026 -
Edmund Afful Hasaacas Actif 82 / 87 40% 1 12.11.2026 -
Arthur Beroe Actif 114 / 113 40% 1 11.11.2026 -
Nathan Trott Cardiff City Actif 132 / 116 40% 1 10.11.2026 -
Tomoki Hayakawa Kashima Antlers Actif 143 / 131 40% 1 10.11.2026 -
CJ dos Santos San Diego Football Club Actif 122 / 122 40% 1 08.11.2026 -
Conrad Wallem Djurgarden Actif 115 / 136 40% 1 07.11.2026 -
Edoardo Colombo Gzira United Actif 80 / 87 40% 1 06.11.2026 -
Martín Ojeda Orlando City Actif 121 / 133 40% 1 04.11.2026 -
Bénie Traoré New York City Actif 125 / 142 40% 1 04.11.2026 -
Isaac Boehmer Vancouver Whitecaps Actif 114 / 101 40% 1 02.11.2026 -
Reed Baker-Whiting Nashville SC Actif 94 / 95 40% 1 05.10.2026 -
Nico O'Reilly Manchester City Actif 159 / 166 40% 1 05.10.2026 -
Amin Boudri Los Angeles Football Club Actif 114 / 122 40% 1 12.09.2026 -
Clinton Jephta Niger Tornadoes Actif 85 / 92 40% 1 10.09.2026 -
Darren Yapi Colorado Rapids Actif 91 / 103 40% 1 09.09.2026 -
Andy Rojas New York Red Bulls Actif 100 / 98 40% 1 09.09.2026 -
Monty Batlhabane Polokwane City Actif 85 / 83 40% 1 07.09.2026 -
David Vazquez San Diego Football Club Actif 97 / 108 40% 1 31.08.2026 -
Hakim Sulemana Ashanti Gold Actif 95 / 110 40% 1 26.08.2026 -
Gerardo Valenzuela FC Cincinnati Actif 92 / 116 40% 1 11.08.2026 -